createdAt,value
2019-06-08T00:01:44.087Z,17.81
2019-06-08T00:04:14.398Z,17.93
2019-06-08T00:06:44.280Z,17.84
2019-06-08T00:09:14.726Z,17.86
2019-06-08T00:11:45.195Z,17.78
2019-06-08T00:14:15.154Z,17.85
2019-06-08T00:16:45.484Z,17.86
2019-06-08T00:19:15.309Z,18.00
2019-06-08T00:21:46.295Z,18.01
2019-06-08T00:24:15.751Z,18.04
2019-06-08T00:26:45.335Z,18.06
2019-06-08T00:29:14.536Z,18.00
2019-06-08T00:31:44.416Z,17.92
2019-06-08T00:34:14.504Z,17.81
2019-06-08T00:36:44.985Z,17.75
2019-06-08T00:42:08.591Z,17.82
2019-06-08T00:44:37.882Z,17.93
2019-06-08T00:47:07.189Z,17.95
2019-06-08T00:49:36.386Z,17.88
2019-06-08T00:52:05.639Z,17.84
2019-06-08T00:54:35.148Z,17.90
2019-06-08T00:57:04.788Z,17.87
2019-06-08T00:59:33.989Z,17.73
2019-06-08T01:02:03.236Z,17.68
2019-06-08T01:04:32.788Z,17.71
2019-06-08T01:07:02.469Z,17.68
2019-06-08T01:09:31.668Z,17.75
2019-06-08T01:12:00.904Z,17.81
2019-06-08T01:14:30.101Z,17.91
2019-06-08T01:16:59.350Z,17.92
2019-06-08T01:19:29.649Z,17.87
2019-06-08T01:21:59.531Z,17.83
2019-06-08T01:24:40.996Z,17.90
2019-06-08T01:27:30.213Z,17.83
2019-06-08T01:29:59.381Z,17.92
2019-06-08T01:32:28.958Z,17.81
2019-06-08T01:34:58.164Z,17.77
2019-06-08T01:37:47.116Z,17.84
2019-06-08T01:40:16.334Z,17.81
2019-06-08T01:42:57.320Z,17.76
2019-06-08T01:45:55.994Z,17.71
2019-06-08T01:48:26.283Z,17.58
2019-06-08T01:50:56.172Z,17.46
2019-06-08T01:53:26.716Z,17.54
2019-06-08T01:55:56.755Z,17.44
2019-06-08T01:58:27.325Z,17.39
2019-06-08T02:00:56.956Z,17.32
2019-06-08T02:03:26.401Z,17.32
2019-06-08T02:05:57.562Z,17.31
2019-06-08T02:08:26.767Z,17.39
2019-06-08T02:10:56.343Z,17.37
2019-06-08T02:13:26.806Z,17.37
2019-06-08T02:15:56.536Z,17.39
2019-06-08T02:18:36.510Z,17.45
2019-06-08T02:20:57.028Z,17.43
2019-06-08T02:23:26.991Z,17.49
2019-06-08T02:25:57.784Z,17.57
2019-06-08T02:28:27.439Z,17.50
2019-06-08T02:30:57.988Z,17.62
2019-06-08T02:33:28.275Z,17.48
2019-06-08T02:35:58.459Z,17.37
2019-06-08T02:38:29.775Z,17.37
2019-06-08T02:40:58.859Z,17.40
2019-06-08T02:43:28.986Z,17.37
2019-06-08T02:45:59.726Z,17.35
2019-06-08T02:48:29.542Z,17.30
2019-06-08T02:57:23.219Z,17.19
2019-06-08T03:00:12.890Z,17.23
2019-06-08T03:03:21.815Z,17.29
2019-06-08T03:12:35.254Z,17.10
2019-06-08T03:15:45.060Z,17.07
2019-06-08T03:18:14.317Z,17.10
2019-06-08T03:20:43.510Z,17.08
2019-06-08T03:23:13.140Z,17.14
2019-06-08T03:25:51.938Z,17.10
2019-06-08T03:28:13.355Z,17.03
2019-06-08T03:30:52.543Z,17.00
2019-06-08T03:33:13.901Z,16.97
2019-06-08T03:35:52.569Z,16.96
2019-06-08T03:38:14.573Z,16.99
2019-06-08T03:40:45.302Z,16.96
2019-06-08T03:43:15.096Z,16.90
2019-06-08T03:45:45.391Z,16.82
2019-06-08T03:48:15.281Z,16.77
2019-06-08T03:50:46.314Z,16.71
2019-06-08T03:53:15.970Z,16.74
2019-06-08T03:55:47.197Z,16.75
2019-06-08T03:58:16.523Z,16.76
2019-06-08T04:00:47.054Z,16.74
2019-06-08T04:03:16.871Z,16.71
2019-06-08T04:05:46.576Z,16.76
2019-06-08T04:08:17.061Z,16.76
2019-06-08T04:10:46.948Z,16.78
2019-06-08T04:13:17.543Z,16.75
2019-06-08T04:15:47.164Z,16.69
2019-06-08T04:18:17.718Z,16.75
2019-06-08T04:20:48.843Z,16.74
2019-06-08T04:23:18.282Z,16.73
2019-06-08T04:25:47.862Z,16.70
2019-06-08T04:28:18.443Z,16.66
2019-06-08T04:30:49.838Z,16.72
2019-06-08T04:33:19.264Z,16.70
2019-06-08T04:35:50.645Z,16.72
2019-06-08T04:38:20.145Z,16.71
2019-06-08T04:40:50.178Z,16.71
2019-06-08T04:43:20.321Z,16.65
2019-06-08T04:45:49.928Z,16.60
2019-06-08T04:48:20.790Z,16.66
2019-06-08T04:50:50.040Z,16.66
2019-06-08T04:56:07.848Z,16.59
2019-06-08T04:58:39.082Z,16.65
2019-06-08T05:01:08.028Z,16.72
2019-06-08T05:03:39.083Z,16.77
2019-06-08T05:06:08.226Z,16.75
2019-06-08T05:08:39.049Z,16.86
2019-06-08T05:11:09.034Z,16.83
2019-06-08T05:13:39.141Z,16.80
2019-06-08T05:16:09.579Z,16.83
2019-06-08T05:18:39.269Z,16.84
2019-06-08T05:21:08.888Z,16.75
2019-06-08T05:23:39.261Z,16.73
2019-06-08T05:26:09.432Z,16.80
2019-06-08T05:28:39.158Z,16.73
2019-06-08T05:31:08.398Z,16.73
2019-06-08T05:33:37.606Z,16.76
2019-06-08T05:36:06.812Z,16.84
2019-06-08T05:38:36.090Z,16.89
2019-06-08T05:41:05.293Z,16.86
2019-06-08T05:43:34.547Z,16.85
2019-06-08T05:46:04.083Z,16.85
2019-06-08T05:48:33.643Z,16.91
2019-06-08T05:51:04.187Z,16.99
2019-06-08T05:53:34.188Z,16.96
2019-06-08T05:56:03.667Z,16.84
2019-06-08T05:58:32.918Z,16.85
2019-06-08T06:01:02.135Z,16.89
2019-06-08T06:03:31.517Z,16.89
2019-06-08T06:06:00.740Z,17.01
2019-06-08T06:08:29.994Z,17.08
2019-06-08T06:10:59.193Z,17.10
2019-06-08T06:13:28.795Z,17.14
2019-06-08T06:15:58.005Z,17.15
2019-06-08T06:18:27.303Z,17.20
2019-06-08T06:21:09.887Z,17.38
2019-06-08T06:23:27.435Z,17.39
2019-06-08T06:25:56.736Z,17.45
2019-06-08T06:28:26.228Z,17.46
2019-06-08T06:30:55.488Z,17.51
2019-06-08T06:33:24.693Z,17.57
2019-06-08T06:35:53.953Z,17.49
2019-06-08T06:38:23.165Z,17.53
2019-06-08T06:40:52.432Z,17.56
2019-06-08T06:43:22.249Z,17.60
2019-06-08T06:45:52.227Z,17.61
2019-06-08T06:48:23.750Z,17.70
2019-06-08T06:50:53.797Z,17.76
2019-06-08T06:53:22.983Z,17.77
2019-06-08T06:55:53.326Z,17.83
2019-06-08T06:58:23.435Z,17.87
2019-06-08T07:03:47.983Z,17.92
2019-06-08T07:06:18.695Z,17.79
2019-06-08T07:08:48.244Z,17.67
2019-06-08T07:11:18.890Z,17.65
2019-06-08T07:13:48.716Z,17.61
2019-06-08T07:16:19.593Z,17.55
2019-06-08T07:18:50.335Z,17.52
2019-06-08T07:21:19.934Z,17.58
2019-06-08T07:23:50.822Z,17.55
2019-06-08T07:26:20.579Z,17.46
2019-06-08T07:28:51.857Z,17.55
2019-06-08T07:31:21.067Z,17.50
2019-06-08T07:33:51.885Z,17.48
2019-06-08T07:36:22.038Z,17.52
2019-06-08T07:38:51.586Z,17.60
2019-06-08T07:41:21.199Z,17.74
2019-06-08T07:43:50.771Z,17.78
2019-06-08T07:46:21.738Z,17.79
2019-06-08T07:48:52.228Z,17.89
2019-06-08T07:51:21.885Z,17.92
2019-06-08T07:53:51.545Z,17.93
2019-06-08T07:56:22.362Z,18.03
2019-06-08T07:58:53.178Z,17.96
2019-06-08T08:01:35.274Z,18.08
2019-06-08T08:03:54.138Z,18.28
2019-06-08T08:06:24.574Z,18.30
2019-06-08T08:08:54.810Z,18.34
2019-06-08T08:11:24.875Z,18.39
2019-06-08T08:13:54.871Z,18.40
2019-06-08T08:16:25.074Z,18.56
2019-06-08T08:18:55.547Z,18.48
2019-06-08T08:21:44.479Z,18.32
2019-06-08T08:24:13.775Z,18.32
2019-06-08T08:26:42.985Z,18.39
2019-06-08T08:29:12.602Z,18.27
2019-06-08T08:31:42.117Z,18.27
2019-06-08T08:34:11.362Z,18.28
2019-06-08T08:36:40.565Z,18.39
2019-06-08T08:39:09.922Z,18.53
2019-06-08T08:41:39.272Z,18.60
2019-06-08T08:44:08.453Z,18.60
2019-06-08T08:46:38.738Z,18.44
2019-06-08T08:52:03.698Z,18.47
2019-06-08T08:54:32.964Z,18.49
2019-06-08T08:57:05.047Z,18.43
2019-06-08T08:59:33.156Z,18.48
2019-06-08T09:02:03.105Z,18.47
2019-06-08T09:04:33.377Z,18.35
2019-06-08T09:07:06.897Z,18.38
2019-06-08T09:09:33.661Z,18.53
2019-06-08T09:12:04.467Z,18.61
2019-06-08T09:14:33.860Z,18.67
2019-06-08T09:17:03.624Z,18.69
2019-06-08T09:19:34.081Z,18.67
2019-06-08T09:22:04.069Z,18.63
2019-06-08T09:24:34.986Z,18.69
2019-06-08T09:27:04.626Z,18.72
2019-06-08T09:29:35.161Z,18.93
2019-06-08T09:32:04.443Z,18.99
2019-06-08T09:34:54.288Z,19.36
2019-06-08T09:37:42.776Z,19.40
2019-06-08T09:40:32.638Z,19.40
2019-06-08T09:43:06.310Z,19.40
2019-06-08T09:45:53.660Z,19.70
2019-06-08T09:48:33.817Z,19.70
2019-06-08T09:51:22.165Z,19.74
2019-06-08T09:53:51.369Z,19.74
2019-06-08T09:56:40.049Z,19.40
2019-06-08T09:59:28.607Z,19.62
2019-06-08T10:02:18.744Z,19.60
2019-06-08T10:04:49.370Z,19.60
2019-06-08T10:07:18.827Z,19.80
2019-06-08T10:09:50.164Z,19.77
2019-06-08T10:12:19.088Z,19.81
2019-06-08T10:14:48.990Z,19.66
2019-06-08T10:17:38.625Z,19.64
2019-06-08T10:23:29.832Z,19.67
2019-06-08T10:25:48.190Z,19.98
2019-06-08T10:28:21.440Z,20.16
2019-06-08T10:30:49.288Z,20.37
2019-06-08T10:33:40.661Z,20.57
2019-06-08T10:36:12.271Z,20.57
2019-06-08T10:38:41.180Z,20.52
2019-06-08T10:41:17.640Z,20.66
2019-06-08T10:43:42.495Z,20.42
2019-06-08T10:46:16.688Z,20.24
2019-06-08T10:48:42.716Z,20.17
2019-06-08T10:51:13.102Z,20.34
2019-06-08T10:54:02.189Z,20.50
2019-06-08T10:56:31.434Z,20.66
2019-06-08T10:59:03.465Z,20.52
2019-06-08T11:01:31.990Z,20.54
2019-06-08T11:04:01.976Z,20.62
2019-06-08T11:06:32.148Z,20.53
2019-06-08T11:09:04.277Z,20.33
2019-06-08T11:11:32.648Z,20.41
2019-06-08T11:14:03.511Z,20.43
2019-06-08T11:16:33.187Z,20.07
2019-06-08T11:19:03.052Z,20.27
2019-06-08T11:21:33.364Z,20.26
2019-06-08T11:24:13.300Z,20.30
2019-06-08T11:26:33.607Z,20.36
2019-06-08T11:29:03.034Z,20.54
2019-06-08T11:31:33.800Z,20.56
2019-06-08T11:34:03.944Z,20.61
2019-06-08T11:36:33.993Z,20.87
2019-06-08T11:39:04.190Z,20.96
2019-06-08T11:41:34.341Z,20.81
2019-06-08T11:44:05.074Z,20.83
2019-06-08T11:46:34.509Z,20.93
2019-06-08T11:49:05.091Z,21.03
2019-06-08T11:52:14.093Z,21.28
2019-06-08T11:54:43.250Z,21.31
2019-06-08T11:57:12.999Z,21.28
2019-06-08T11:59:43.742Z,21.33
2019-06-08T12:02:14.253Z,21.20
2019-06-08T12:04:43.893Z,21.18
2019-06-08T12:07:13.990Z,21.38
2019-06-08T12:09:44.425Z,21.49
2019-06-08T12:12:17.783Z,21.59
2019-06-08T12:14:47.476Z,21.84
2019-06-08T12:17:21.706Z,22.14
2019-06-08T12:19:47.696Z,22.25
2019-06-08T12:22:21.687Z,22.27
2019-06-08T12:24:49.454Z,22.28
2019-06-08T12:27:29.513Z,21.97
2019-06-08T12:29:50.457Z,22.29
2019-06-08T12:32:20.583Z,22.56
2019-06-08T12:34:49.772Z,22.75
2019-06-08T12:37:22.211Z,22.51
2019-06-08T12:39:49.937Z,22.51
2019-06-08T12:42:22.977Z,22.53
2019-06-08T12:44:50.142Z,22.55
2019-06-08T12:47:25.834Z,22.37
2019-06-08T12:49:50.289Z,22.25
2019-06-08T12:52:21.958Z,22.18
2019-06-08T12:55:00.064Z,21.96
2019-06-08T12:57:22.160Z,21.86
2019-06-08T12:59:52.410Z,21.80
2019-06-08T13:02:24.071Z,21.94
2019-06-08T13:04:52.627Z,22.26
2019-06-08T13:07:22.203Z,22.57
2019-06-08T13:09:51.410Z,22.78
2019-06-08T13:12:21.886Z,22.96
2019-06-08T13:14:52.217Z,23.01
2019-06-08T13:17:21.917Z,23.08
2019-06-08T13:19:51.142Z,22.85
2019-06-08T13:22:27.967Z,24.15
2019-06-08T13:24:52.086Z,26.03
2019-06-08T13:27:23.214Z,27.24
2019-06-08T13:29:53.541Z,27.66
2019-06-08T13:32:22.742Z,27.07
2019-06-08T13:34:52.661Z,25.46
2019-06-08T13:37:22.257Z,24.64
2019-06-08T13:39:53.204Z,24.07
2019-06-08T13:42:23.182Z,23.62
2019-06-08T13:44:53.558Z,23.44
2019-06-08T13:47:23.155Z,23.51
2019-06-08T13:49:53.844Z,23.55
2019-06-08T13:52:24.193Z,23.81
2019-06-08T13:54:54.359Z,23.66
2019-06-08T13:57:25.073Z,23.58
2019-06-08T13:59:54.606Z,23.50
2019-06-08T14:02:28.531Z,23.47
2019-06-08T14:04:54.805Z,23.52
2019-06-08T14:07:28.479Z,23.62
2019-06-08T14:09:55.320Z,23.87
2019-06-08T14:12:25.795Z,24.17
2019-06-08T14:17:31.144Z,24.93
2019-06-08T14:20:00.427Z,24.24
2019-06-08T14:22:30.497Z,24.46
2019-06-08T14:25:00.172Z,24.55
2019-06-08T14:27:32.965Z,24.61
2019-06-08T14:30:00.425Z,24.48
2019-06-08T14:32:29.666Z,24.69
2019-06-08T14:34:59.870Z,25.12
2019-06-08T14:37:30.551Z,25.57
2019-06-08T14:40:00.886Z,25.98
2019-06-08T14:42:31.742Z,26.05
2019-06-08T14:45:01.430Z,26.39
2019-06-08T14:47:30.950Z,26.69
2019-06-08T14:50:01.579Z,26.75
2019-06-08T14:52:31.166Z,27.01
2019-06-08T14:55:00.421Z,26.97
2019-06-08T14:57:30.834Z,26.48
2019-06-08T15:00:08.329Z,26.51
2019-06-08T15:02:32.033Z,26.76
2019-06-08T15:05:01.300Z,26.99
2019-06-08T15:07:32.373Z,26.75
2019-06-08T15:10:01.419Z,26.68
2019-06-08T15:12:31.499Z,26.71
2019-06-08T15:15:01.606Z,26.82
2019-06-08T15:17:32.065Z,26.56
2019-06-08T15:20:01.809Z,26.67
2019-06-08T15:22:32.008Z,26.96
2019-06-08T15:25:02.329Z,26.74
2019-06-08T15:30:45.966Z,27.07
2019-06-08T15:33:15.189Z,27.18
2019-06-08T15:35:44.463Z,27.80
2019-06-08T15:38:13.676Z,28.59
2019-06-08T15:40:43.287Z,29.41
2019-06-08T15:43:12.971Z,29.52
2019-06-08T15:45:42.680Z,29.56
2019-06-08T15:48:12.249Z,29.60
2019-06-08T15:50:41.525Z,29.90
2019-06-08T15:53:10.772Z,30.51
2019-06-08T15:55:40.073Z,31.10
2019-06-08T15:58:09.284Z,31.48
2019-06-08T16:00:38.566Z,30.45
2019-06-08T16:03:07.882Z,29.93
2019-06-08T16:05:37.144Z,29.81
2019-06-08T16:08:06.750Z,30.16
2019-06-08T16:10:35.994Z,30.56
2019-06-08T16:13:05.289Z,30.99
2019-06-08T16:15:35.284Z,32.66
2019-06-08T16:18:05.648Z,33.80
2019-06-08T16:20:35.764Z,34.54
2019-06-08T16:23:06.685Z,36.14
2019-06-08T16:25:38.761Z,36.94
2019-06-08T16:28:06.957Z,38.02
2019-06-08T16:30:36.167Z,39.14
2019-06-08T16:33:05.872Z,40.40
2019-06-08T16:35:35.766Z,39.09
2019-06-08T16:38:06.384Z,39.45
2019-06-08T16:40:36.329Z,39.30
2019-06-08T16:43:07.021Z,39.76
2019-06-08T16:45:36.968Z,40.61
2019-06-08T16:48:06.274Z,40.99
2019-06-08T16:50:36.366Z,40.54
2019-06-08T16:53:06.777Z,41.65
2019-06-08T16:55:36.210Z,42.12
2019-06-08T16:58:05.500Z,43.30
2019-06-08T17:00:38.603Z,44.43
2019-06-08T17:03:05.851Z,43.70
2019-06-08T17:05:35.305Z,43.98
2019-06-08T17:08:04.610Z,43.86
2019-06-08T17:10:34.646Z,43.04
2019-06-08T17:13:05.152Z,42.34
2019-06-08T17:15:34.375Z,42.75
2019-06-08T17:18:04.274Z,43.04
2019-06-08T17:20:36.297Z,43.42
2019-06-08T17:23:05.926Z,42.29
2019-06-08T17:25:36.509Z,42.25
2019-06-08T17:28:06.248Z,39.78
2019-06-08T17:30:35.781Z,36.74
2019-06-08T17:33:06.844Z,36.12
2019-06-08T17:35:37.587Z,37.23
2019-06-08T17:38:07.439Z,35.92
2019-06-08T17:40:38.050Z,33.48
2019-06-08T17:43:08.032Z,31.40
2019-06-08T17:45:38.507Z,29.45
2019-06-08T17:48:08.888Z,28.02
2019-06-08T17:50:38.687Z,26.95
2019-06-08T17:53:09.068Z,26.18
2019-06-08T17:55:39.480Z,25.64
2019-06-08T17:58:09.581Z,25.31
2019-06-08T18:00:39.484Z,24.94
2019-06-08T18:03:09.780Z,24.69
2019-06-08T18:05:42.303Z,24.42
2019-06-08T18:08:10.014Z,24.32
2019-06-08T18:10:41.447Z,24.08
2019-06-08T18:13:10.256Z,23.92
2019-06-08T18:15:41.548Z,23.70
2019-06-08T18:18:11.204Z,23.48
2019-06-08T18:20:42.099Z,23.28
2019-06-08T18:23:11.474Z,23.21
2019-06-08T18:25:42.104Z,23.22
2019-06-08T18:28:13.592Z,23.16
2019-06-08T18:30:44.748Z,23.10
2019-06-08T18:33:14.309Z,23.06
2019-06-08T18:35:44.597Z,23.02
2019-06-08T18:38:14.955Z,22.94
2019-06-08T18:40:45.560Z,22.87
2019-06-08T18:43:17.053Z,22.82
2019-06-08T18:48:57.736Z,22.90
2019-06-08T18:51:28.094Z,22.80
2019-06-08T18:54:08.588Z,22.72
2019-06-08T18:56:28.696Z,22.60
2019-06-08T18:58:58.440Z,22.55
2019-06-08T19:01:27.949Z,22.46
2019-06-08T19:03:58.697Z,22.34
2019-06-08T19:09:38.779Z,22.31
2019-06-08T19:12:07.520Z,22.27
2019-06-08T19:14:37.778Z,22.19
2019-06-08T19:17:07.946Z,22.21
2019-06-08T19:19:41.253Z,22.13
2019-06-08T19:22:08.722Z,22.09
2019-06-08T19:24:40.748Z,22.02
2019-06-08T19:27:08.962Z,21.91
2019-06-08T19:29:41.777Z,21.85
2019-06-08T19:32:09.216Z,21.82
2019-06-08T19:34:40.631Z,21.70
2019-06-08T19:37:09.895Z,21.67
2019-06-08T19:39:43.128Z,21.61
2019-06-08T19:42:10.979Z,21.57
2019-06-08T19:44:46.662Z,21.53
2019-06-08T19:47:11.618Z,21.47
2019-06-08T19:49:41.828Z,21.38
2019-06-08T19:52:12.495Z,21.35
2019-06-08T19:54:43.646Z,21.32
2019-06-08T19:57:12.687Z,21.34
2019-06-08T19:59:41.899Z,21.41
2019-06-08T20:02:11.151Z,21.46
2019-06-08T20:04:40.642Z,21.45
2019-06-08T20:07:11.400Z,21.35
2019-06-08T20:09:41.103Z,21.25
2019-06-08T20:12:11.611Z,21.17
2019-06-08T20:14:41.305Z,21.12
2019-06-08T20:17:11.756Z,21.08
2019-06-08T20:19:41.041Z,21.04
2019-06-08T20:22:10.265Z,21.03
2019-06-08T20:24:39.533Z,20.98
2019-06-08T20:27:10.288Z,20.89
2019-06-08T20:29:41.193Z,20.82
2019-06-08T20:32:10.862Z,20.80
2019-06-08T20:34:40.150Z,20.74
2019-06-08T20:37:09.717Z,20.68
2019-06-08T20:39:39.833Z,20.65
2019-06-08T20:42:11.917Z,20.62
2019-06-08T20:44:40.045Z,20.62
2019-06-08T20:47:09.265Z,20.60
2019-06-08T20:49:38.551Z,20.57
2019-06-08T20:52:08.635Z,20.58
2019-06-08T20:54:39.084Z,20.58
2019-06-08T20:57:08.321Z,20.58
2019-06-08T20:59:40.015Z,20.55
2019-06-08T21:02:08.876Z,20.49
2019-06-08T21:04:38.466Z,20.46
2019-06-08T21:07:09.059Z,20.45
2019-06-08T21:09:38.632Z,20.48
2019-06-08T21:12:07.889Z,20.44
2019-06-08T21:14:37.956Z,20.42
2019-06-08T21:17:08.258Z,20.42
2019-06-08T21:19:37.462Z,20.43
2019-06-08T21:22:08.219Z,20.39
2019-06-08T21:24:37.639Z,20.35
2019-06-08T21:27:08.205Z,20.41
2019-06-08T21:29:47.639Z,20.35
2019-06-08T21:32:09.407Z,20.40
2019-06-08T21:34:38.978Z,20.46
2019-06-08T21:37:09.170Z,20.47
2019-06-08T21:39:39.822Z,20.45
2019-06-08T21:42:09.511Z,20.40
2019-06-08T21:44:39.080Z,20.35
2019-06-08T21:47:08.409Z,20.34
2019-06-08T21:49:38.435Z,20.41
2019-06-08T21:52:08.606Z,20.37
2019-06-08T21:54:37.811Z,20.32
2019-06-08T21:57:09.539Z,20.34
2019-06-08T21:59:38.328Z,20.24
2019-06-08T22:02:48.135Z,20.25
2019-06-08T22:05:17.780Z,20.23
2019-06-08T22:07:47.261Z,20.23
2019-06-08T22:10:37.733Z,20.20
2019-06-08T22:13:11.605Z,20.22
2019-06-08T22:15:39.763Z,20.23
2019-06-08T22:18:10.971Z,20.19
2019-06-08T22:20:40.822Z,20.15
2019-06-08T22:23:10.106Z,20.16
2019-06-08T22:25:39.409Z,20.15
2019-06-08T22:28:09.029Z,20.17
2019-06-08T22:30:42.761Z,20.14
2019-06-08T22:33:09.260Z,20.16
2019-06-08T22:35:38.588Z,20.05
2019-06-08T22:38:08.719Z,20.07
2019-06-08T22:40:39.660Z,20.09
2019-06-08T22:43:09.220Z,20.06
2019-06-08T22:45:39.391Z,19.95
2019-06-08T22:48:08.618Z,19.95
2019-06-08T22:50:38.386Z,19.95
2019-06-08T22:53:09.919Z,19.86
2019-06-08T22:55:39.215Z,19.73
2019-06-08T22:58:08.831Z,19.64
2019-06-08T23:00:51.810Z,19.62
2019-06-08T23:03:09.371Z,19.69
2019-06-08T23:05:39.083Z,19.71
2019-06-08T23:08:09.418Z,19.78
2019-06-08T23:10:39.696Z,19.82
2019-06-08T23:13:08.906Z,19.89
2019-06-08T23:15:38.428Z,19.89
2019-06-08T23:18:09.456Z,19.81
2019-06-08T23:20:39.195Z,19.84
2019-06-08T23:23:09.053Z,19.79
2019-06-08T23:25:39.461Z,19.72
2019-06-08T23:28:09.876Z,19.67
2019-06-08T23:30:40.401Z,19.63
2019-06-08T23:33:11.385Z,19.59
2019-06-08T23:36:02.969Z,19.60
2019-06-08T23:40:47.374Z,19.53
2019-06-08T23:43:18.093Z,19.55
2019-06-08T23:45:47.930Z,19.47
2019-06-08T23:48:17.554Z,19.43
2019-06-08T23:50:48.158Z,19.41
2019-06-08T23:53:18.377Z,19.43
2019-06-08T23:55:48.064Z,19.48
2019-06-08T23:58:18.597Z,19.48
